sensor_id;sensor_type;location;lat;lon;timestamp;P1;durP1;ratioP1;P2;durP2;ratioP2
48268;SDS011;34088;52.232;5.196;2023-08-21T00:01:00;5.72;;;2.63;;
48268;SDS011;34088;52.232;5.196;2023-08-21T00:03:26;5.38;;;2.45;;
48268;SDS011;34088;52.232;5.196;2023-08-21T00:05:51;8.30;;;2.83;;
48268;SDS011;34088;52.232;5.196;2023-08-21T00:08:17;6.65;;;3.10;;
48268;SDS011;34088;52.232;5.196;2023-08-21T00:10:42;7.63;;;3.15;;
48268;SDS011;34088;52.232;5.196;2023-08-21T00:13:07;7.10;;;2.63;;
48268;SDS011;34088;52.232;5.196;2023-08-21T00:15:33;7.38;;;2.75;;
48268;SDS011;34088;52.232;5.196;2023-08-21T00:17:58;6.43;;;2.70;;
48268;SDS011;34088;52.232;5.196;2023-08-21T00:33:21;6.57;;;2.80;;
48268;SDS011;34088;52.232;5.196;2023-08-21T00:35:46;6.00;;;2.92;;
48268;SDS011;34088;52.232;5.196;2023-08-21T00:38:12;8.80;;;2.70;;
48268;SDS011;34088;52.232;5.196;2023-08-21T00:40:37;6.82;;;2.40;;
48268;SDS011;34088;52.232;5.196;2023-08-21T00:43:02;5.78;;;2.40;;
48268;SDS011;34088;52.232;5.196;2023-08-21T00:45:29;6.68;;;2.83;;
48268;SDS011;34088;52.232;5.196;2023-08-21T00:47:55;5.00;;;2.58;;
48268;SDS011;34088;52.232;5.196;2023-08-21T00:50:20;8.23;;;3.03;;
48268;SDS011;34088;52.232;5.196;2023-08-21T00:52:45;7.93;;;2.83;;
48268;SDS011;34088;52.232;5.196;2023-08-21T00:55:12;8.00;;;2.75;;
48268;SDS011;34088;52.232;5.196;2023-08-21T00:57:39;5.70;;;2.38;;
48268;SDS011;34088;52.232;5.196;2023-08-21T01:00:04;9.02;;;2.65;;
48268;SDS011;34088;52.232;5.196;2023-08-21T01:02:30;8.25;;;2.53;;
48268;SDS011;34088;52.232;5.196;2023-08-21T01:04:56;8.25;;;3.08;;
48268;SDS011;34088;52.232;5.196;2023-08-21T01:07:21;5.35;;;2.90;;
48268;SDS011;34088;52.232;5.196;2023-08-21T01:09:52;7.05;;;3.00;;
48268;SDS011;34088;52.232;5.196;2023-08-21T01:12:33;8.07;;;2.90;;
48268;SDS011;34088;52.232;5.196;2023-08-21T01:15:05;6.00;;;2.97;;
48268;SDS011;34088;52.232;5.196;2023-08-21T01:17:36;6.20;;;2.45;;
48268;SDS011;34088;52.232;5.196;2023-08-21T01:20:02;6.22;;;2.50;;
48268;SDS011;34088;52.232;5.196;2023-08-21T01:22:36;6.25;;;2.60;;
48268;SDS011;34088;52.232;5.196;2023-08-21T01:25:03;6.32;;;2.75;;
48268;SDS011;34088;52.232;5.196;2023-08-21T01:27:30;9.18;;;2.97;;
48268;SDS011;34088;52.232;5.196;2023-08-21T01:29:55;7.88;;;2.50;;
48268;SDS011;34088;52.232;5.196;2023-08-21T01:32:23;8.20;;;2.55;;
48268;SDS011;34088;52.232;5.196;2023-08-21T01:34:49;6.75;;;2.95;;
48268;SDS011;34088;52.232;5.196;2023-08-21T01:37:17;9.15;;;3.28;;
48268;SDS011;34088;52.232;5.196;2023-08-21T01:39:42;8.15;;;2.80;;
48268;SDS011;34088;52.232;5.196;2023-08-21T01:42:08;7.15;;;2.50;;
48268;SDS011;34088;52.232;5.196;2023-08-21T01:44:33;5.07;;;2.40;;
48268;SDS011;34088;52.232;5.196;2023-08-21T01:46:58;9.27;;;2.80;;
48268;SDS011;34088;52.232;5.196;2023-08-21T01:49:24;7.05;;;2.45;;
48268;SDS011;34088;52.232;5.196;2023-08-21T01:51:49;8.20;;;2.75;;
48268;SDS011;34088;52.232;5.196;2023-08-21T01:54:14;5.63;;;2.40;;
48268;SDS011;34088;52.232;5.196;2023-08-21T01:56:39;5.97;;;2.72;;
48268;SDS011;34088;52.232;5.196;2023-08-21T01:59:05;5.07;;;2.65;;
48268;SDS011;34088;52.232;5.196;2023-08-21T02:01:31;6.15;;;2.85;;
48268;SDS011;34088;52.232;5.196;2023-08-21T02:03:57;6.30;;;2.38;;
48268;SDS011;34088;52.232;5.196;2023-08-21T02:06:22;7.15;;;2.55;;
48268;SDS011;34088;52.232;5.196;2023-08-21T02:08:48;10.80;;;2.70;;
48268;SDS011;34088;52.232;5.196;2023-08-21T02:11:13;6.28;;;2.50;;
48268;SDS011;34088;52.232;5.196;2023-08-21T02:13:39;8.32;;;2.90;;
48268;SDS011;34088;52.232;5.196;2023-08-21T02:16:04;9.07;;;2.78;;
48268;SDS011;34088;52.232;5.196;2023-08-21T02:18:29;8.77;;;3.20;;
48268;SDS011;34088;52.232;5.196;2023-08-21T02:20:55;7.85;;;2.70;;
48268;SDS011;34088;52.232;5.196;2023-08-21T02:23:20;7.72;;;2.67;;
48268;SDS011;34088;52.232;5.196;2023-08-21T02:25:45;6.40;;;2.95;;
48268;SDS011;34088;52.232;5.196;2023-08-21T02:28:11;5.65;;;2.58;;
48268;SDS011;34088;52.232;5.196;2023-08-21T02:30:39;5.68;;;2.70;;
48268;SDS011;34088;52.232;5.196;2023-08-21T02:33:05;6.45;;;2.60;;
48268;SDS011;34088;52.232;5.196;2023-08-21T02:35:30;7.90;;;2.80;;
48268;SDS011;34088;52.232;5.196;2023-08-21T02:37:55;5.68;;;2.67;;
48268;SDS011;34088;52.232;5.196;2023-08-21T02:40:21;6.65;;;2.55;;
48268;SDS011;34088;52.232;5.196;2023-08-21T02:42:46;7.90;;;2.63;;
48268;SDS011;34088;52.232;5.196;2023-08-21T02:45:11;7.60;;;2.70;;
48268;SDS011;34088;52.232;5.196;2023-08-21T02:47:37;7.05;;;2.50;;
48268;SDS011;34088;52.232;5.196;2023-08-21T02:50:06;6.00;;;2.53;;
48268;SDS011;34088;52.232;5.196;2023-08-21T02:52:33;11.48;;;3.22;;
48268;SDS011;34088;52.232;5.196;2023-08-21T02:54:59;5.95;;;2.58;;
48268;SDS011;34088;52.232;5.196;2023-08-21T02:57:24;6.05;;;2.53;;
48268;SDS011;34088;52.232;5.196;2023-08-21T02:59:51;6.57;;;2.50;;
48268;SDS011;34088;52.232;5.196;2023-08-21T03:02:17;7.28;;;2.60;;
48268;SDS011;34088;52.232;5.196;2023-08-21T03:04:43;7.05;;;2.90;;
48268;SDS011;34088;52.232;5.196;2023-08-21T03:07:08;6.35;;;2.67;;
48268;SDS011;34088;52.232;5.196;2023-08-21T03:09:33;6.82;;;2.67;;
48268;SDS011;34088;52.232;5.196;2023-08-21T03:11:59;4.90;;;2.70;;
48268;SDS011;34088;52.232;5.196;2023-08-21T03:14:25;6.03;;;2.53;;
48268;SDS011;34088;52.232;5.196;2023-08-21T03:16:51;6.40;;;2.50;;
48268;SDS011;34088;52.232;5.196;2023-08-21T03:19:17;4.63;;;2.40;;
48268;SDS011;34088;52.232;5.196;2023-08-21T03:21:42;8.38;;;2.75;;
48268;SDS011;34088;52.232;5.196;2023-08-21T03:24:07;5.15;;;2.67;;
48268;SDS011;34088;52.232;5.196;2023-08-21T03:26:32;6.45;;;2.90;;
48268;SDS011;34088;52.232;5.196;2023-08-21T03:28:58;6.07;;;2.65;;
48268;SDS011;34088;52.232;5.196;2023-08-21T03:31:23;4.50;;;2.35;;
48268;SDS011;34088;52.232;5.196;2023-08-21T03:33:48;6.10;;;2.78;;
48268;SDS011;34088;52.232;5.196;2023-08-21T03:36:14;4.82;;;2.63;;
48268;SDS011;34088;52.232;5.196;2023-08-21T03:38:39;5.82;;;2.55;;
48268;SDS011;34088;52.232;5.196;2023-08-21T03:41:04;7.22;;;2.88;;
48268;SDS011;34088;52.232;5.196;2023-08-21T03:43:30;4.15;;;2.53;;
48268;SDS011;34088;52.232;5.196;2023-08-21T03:45:56;8.15;;;2.70;;
48268;SDS011;34088;52.232;5.196;2023-08-21T03:48:21;5.85;;;2.88;;
48268;SDS011;34088;52.232;5.196;2023-08-21T03:50:47;6.82;;;2.70;;
48268;SDS011;34088;52.232;5.196;2023-08-21T03:53:14;7.88;;;2.60;;
48268;SDS011;34088;52.232;5.196;2023-08-21T03:55:39;5.25;;;2.78;;
48268;SDS011;34088;52.232;5.196;2023-08-21T03:58:04;7.38;;;2.90;;
48268;SDS011;34088;52.232;5.196;2023-08-21T04:00:29;7.35;;;2.58;;
48268;SDS011;34088;52.232;5.196;2023-08-21T04:02:55;5.07;;;2.80;;
48268;SDS011;34088;52.232;5.196;2023-08-21T04:05:21;5.22;;;2.85;;
48268;SDS011;34088;52.232;5.196;2023-08-21T04:07:46;7.07;;;2.83;;
48268;SDS011;34088;52.232;5.196;2023-08-21T04:10:11;6.45;;;3.10;;
48268;SDS011;34088;52.232;5.196;2023-08-21T04:12:37;7.55;;;3.10;;
48268;SDS011;34088;52.232;5.196;2023-08-21T04:15:02;3.78;;;2.30;;
48268;SDS011;34088;52.232;5.196;2023-08-21T04:17:27;4.57;;;2.05;;
48268;SDS011;34088;52.232;5.196;2023-08-21T04:19:53;7.28;;;2.67;;
48268;SDS011;34088;52.232;5.196;2023-08-21T04:24:43;6.80;;;2.50;;
48268;SDS011;34088;52.232;5.196;2023-08-21T04:27:09;5.75;;;2.33;;
48268;SDS011;34088;52.232;5.196;2023-08-21T04:32:03;8.07;;;2.88;;
48268;SDS011;34088;52.232;5.196;2023-08-21T04:34:29;5.55;;;2.58;;
48268;SDS011;34088;52.232;5.196;2023-08-21T04:39:19;5.70;;;2.60;;
48268;SDS011;34088;52.232;5.196;2023-08-21T04:44:10;6.47;;;2.70;;
48268;SDS011;34088;52.232;5.196;2023-08-21T04:46:36;8.27;;;2.85;;
48268;SDS011;34088;52.232;5.196;2023-08-21T04:49:01;5.03;;;2.47;;
48268;SDS011;34088;52.232;5.196;2023-08-21T04:51:26;5.40;;;2.70;;
48268;SDS011;34088;52.232;5.196;2023-08-21T04:53:52;6.95;;;2.75;;
48268;SDS011;34088;52.232;5.196;2023-08-21T04:56:17;5.18;;;2.72;;
48268;SDS011;34088;52.232;5.196;2023-08-21T04:58:42;6.97;;;2.63;;
48268;SDS011;34088;52.232;5.196;2023-08-21T05:03:33;4.03;;;2.35;;
48268;SDS011;34088;52.232;5.196;2023-08-21T05:05:59;6.10;;;2.60;;
48268;SDS011;34088;52.232;5.196;2023-08-21T05:08:24;3.70;;;2.30;;
48268;SDS011;34088;52.232;5.196;2023-08-21T05:10:54;6.53;;;2.67;;
48268;SDS011;34088;52.232;5.196;2023-08-21T05:13:21;5.60;;;2.40;;
48268;SDS011;34088;52.232;5.196;2023-08-21T05:18:16;6.35;;;2.38;;
48268;SDS011;34088;52.232;5.196;2023-08-21T05:20:41;4.43;;;2.50;;
48268;SDS011;34088;52.232;5.196;2023-08-21T05:23:06;4.88;;;2.38;;
48268;SDS011;34088;52.232;5.196;2023-08-21T05:27:57;5.13;;;2.50;;
48268;SDS011;34088;52.232;5.196;2023-08-21T05:32:47;7.40;;;3.10;;
48268;SDS011;34088;52.232;5.196;2023-08-21T05:35:13;6.43;;;2.60;;
48268;SDS011;34088;52.232;5.196;2023-08-21T05:37:38;6.63;;;2.78;;
48268;SDS011;34088;52.232;5.196;2023-08-21T05:40:03;5.50;;;2.90;;
48268;SDS011;34088;52.232;5.196;2023-08-21T05:42:30;5.68;;;2.60;;
48268;SDS011;34088;52.232;5.196;2023-08-21T05:44:55;8.52;;;2.85;;
48268;SDS011;34088;52.232;5.196;2023-08-21T05:47:20;6.30;;;3.53;;
48268;SDS011;34088;52.232;5.196;2023-08-21T05:49:46;6.88;;;3.30;;
48268;SDS011;34088;52.232;5.196;2023-08-21T05:52:12;8.80;;;3.60;;
48268;SDS011;34088;52.232;5.196;2023-08-21T05:54:38;6.78;;;3.30;;
48268;SDS011;34088;52.232;5.196;2023-08-21T05:57:03;5.22;;;3.05;;
48268;SDS011;34088;52.232;5.196;2023-08-21T06:01:57;6.95;;;3.30;;
48268;SDS011;34088;52.232;5.196;2023-08-21T06:04:23;9.68;;;3.70;;
48268;SDS011;34088;52.232;5.196;2023-08-21T06:06:49;10.27;;;3.25;;
48268;SDS011;34088;52.232;5.196;2023-08-21T06:09:14;7.70;;;3.67;;
48268;SDS011;34088;52.232;5.196;2023-08-21T06:11:42;9.25;;;3.42;;
48268;SDS011;34088;52.232;5.196;2023-08-21T06:14:07;10.25;;;3.85;;
48268;SDS011;34088;52.232;5.196;2023-08-21T06:16:32;9.10;;;3.50;;
48268;SDS011;34088;52.232;5.196;2023-08-21T06:18:58;9.45;;;3.80;;
48268;SDS011;34088;52.232;5.196;2023-08-21T06:21:23;8.77;;;3.45;;
48268;SDS011;34088;52.232;5.196;2023-08-21T06:23:48;9.95;;;3.80;;
48268;SDS011;34088;52.232;5.196;2023-08-21T06:26:13;11.00;;;3.78;;
48268;SDS011;34088;52.232;5.196;2023-08-21T06:28:39;6.40;;;3.42;;
48268;SDS011;34088;52.232;5.196;2023-08-21T06:31:04;10.10;;;3.80;;
48268;SDS011;34088;52.232;5.196;2023-08-21T06:33:32;9.50;;;3.63;;
48268;SDS011;34088;52.232;5.196;2023-08-21T06:35:58;9.15;;;3.47;;
48268;SDS011;34088;52.232;5.196;2023-08-21T06:38:23;11.70;;;3.70;;
48268;SDS011;34088;52.232;5.196;2023-08-21T06:40:49;7.43;;;3.15;;
48268;SDS011;34088;52.232;5.196;2023-08-21T06:43:15;7.85;;;3.20;;
48268;SDS011;34088;52.232;5.196;2023-08-21T06:45:41;9.48;;;3.78;;
48268;SDS011;34088;52.232;5.196;2023-08-21T06:48:06;8.98;;;3.50;;
48268;SDS011;34088;52.232;5.196;2023-08-21T06:50:32;6.47;;;3.00;;
48268;SDS011;34088;52.232;5.196;2023-08-21T06:52:57;11.13;;;3.40;;
48268;SDS011;34088;52.232;5.196;2023-08-21T06:55:22;10.13;;;2.97;;
48268;SDS011;34088;52.232;5.196;2023-08-21T06:57:48;9.07;;;3.67;;
48268;SDS011;34088;52.232;5.196;2023-08-21T07:00:13;9.65;;;3.92;;
48268;SDS011;34088;52.232;5.196;2023-08-21T07:02:39;9.68;;;3.28;;
48268;SDS011;34088;52.232;5.196;2023-08-21T07:05:04;7.60;;;3.35;;
48268;SDS011;34088;52.232;5.196;2023-08-21T07:07:30;8.45;;;3.03;;
48268;SDS011;34088;52.232;5.196;2023-08-21T07:09:55;12.13;;;3.53;;
48268;SDS011;34088;52.232;5.196;2023-08-21T07:12:21;8.43;;;3.15;;
48268;SDS011;34088;52.232;5.196;2023-08-21T07:14:47;12.02;;;3.88;;
48268;SDS011;34088;52.232;5.196;2023-08-21T07:17:12;9.38;;;3.05;;
48268;SDS011;34088;52.232;5.196;2023-08-21T07:19:38;9.65;;;2.78;;
48268;SDS011;34088;52.232;5.196;2023-08-21T07:22:03;9.82;;;2.90;;
48268;SDS011;34088;52.232;5.196;2023-08-21T07:24:28;9.00;;;2.60;;
48268;SDS011;34088;52.232;5.196;2023-08-21T07:26:54;8.65;;;2.40;;
48268;SDS011;34088;52.232;5.196;2023-08-21T07:29:19;10.80;;;2.50;;
48268;SDS011;34088;52.232;5.196;2023-08-21T07:31:44;8.35;;;2.30;;
48268;SDS011;34088;52.232;5.196;2023-08-21T07:34:09;8.48;;;2.10;;
48268;SDS011;34088;52.232;5.196;2023-08-21T07:36:35;8.55;;;2.00;;
48268;SDS011;34088;52.232;5.196;2023-08-21T07:39:00;9.70;;;2.45;;
48268;SDS011;34088;52.232;5.196;2023-08-21T07:41:25;7.68;;;1.92;;
48268;SDS011;34088;52.232;5.196;2023-08-21T07:43:51;7.35;;;2.25;;
48268;SDS011;34088;52.232;5.196;2023-08-21T07:46:16;8.45;;;2.00;;
48268;SDS011;34088;52.232;5.196;2023-08-21T07:48:43;14.63;;;1.88;;
48268;SDS011;34088;52.232;5.196;2023-08-21T07:51:09;7.20;;;2.05;;
48268;SDS011;34088;52.232;5.196;2023-08-21T07:53:35;9.45;;;1.80;;
48268;SDS011;34088;52.232;5.196;2023-08-21T07:56:00;8.63;;;1.70;;
48268;SDS011;34088;52.232;5.196;2023-08-21T07:58:26;8.10;;;2.00;;
48268;SDS011;34088;52.232;5.196;2023-08-21T08:00:52;8.48;;;1.90;;
48268;SDS011;34088;52.232;5.196;2023-08-21T08:03:17;10.32;;;2.22;;
48268;SDS011;34088;52.232;5.196;2023-08-21T08:05:42;6.50;;;1.60;;
48268;SDS011;34088;52.232;5.196;2023-08-21T08:08:08;9.63;;;1.83;;
48268;SDS011;34088;52.232;5.196;2023-08-21T08:10:36;7.03;;;2.00;;
48268;SDS011;34088;52.232;5.196;2023-08-21T08:13:03;6.18;;;1.77;;
48268;SDS011;34088;52.232;5.196;2023-08-21T08:15:29;6.85;;;2.22;;
48268;SDS011;34088;52.232;5.196;2023-08-21T08:17:54;9.95;;;2.00;;
48268;SDS011;34088;52.232;5.196;2023-08-21T08:20:20;11.40;;;2.08;;
48268;SDS011;34088;52.232;5.196;2023-08-21T08:22:45;8.38;;;2.10;;
48268;SDS011;34088;52.232;5.196;2023-08-21T08:25:11;11.57;;;2.30;;
48268;SDS011;34088;52.232;5.196;2023-08-21T08:27:36;7.82;;;2.00;;
48268;SDS011;34088;52.232;5.196;2023-08-21T08:30:02;7.63;;;1.75;;
48268;SDS011;34088;52.232;5.196;2023-08-21T08:32:28;7.93;;;1.98;;
48268;SDS011;34088;52.232;5.196;2023-08-21T08:34:54;8.45;;;2.10;;
48268;SDS011;34088;52.232;5.196;2023-08-21T08:37:20;8.95;;;1.70;;
48268;SDS011;34088;52.232;5.196;2023-08-21T08:39:48;8.27;;;1.85;;
48268;SDS011;34088;52.232;5.196;2023-08-21T08:42:14;7.60;;;1.90;;
48268;SDS011;34088;52.232;5.196;2023-08-21T08:44:41;11.98;;;2.10;;
48268;SDS011;34088;52.232;5.196;2023-08-21T08:47:08;6.22;;;1.90;;
48268;SDS011;34088;52.232;5.196;2023-08-21T08:49:34;8.52;;;1.75;;
48268;SDS011;34088;52.232;5.196;2023-08-21T08:52:00;7.10;;;1.63;;
48268;SDS011;34088;52.232;5.196;2023-08-21T08:54:25;7.95;;;2.08;;
48268;SDS011;34088;52.232;5.196;2023-08-21T08:56:52;10.05;;;2.33;;
48268;SDS011;34088;52.232;5.196;2023-08-21T08:59:18;7.78;;;1.90;;
48268;SDS011;34088;52.232;5.196;2023-08-21T09:01:43;7.30;;;1.73;;
48268;SDS011;34088;52.232;5.196;2023-08-21T09:04:09;8.13;;;1.70;;
48268;SDS011;34088;52.232;5.196;2023-08-21T09:06:35;4.53;;;1.98;;
48268;SDS011;34088;52.232;5.196;2023-08-21T09:09:00;6.88;;;1.60;;
48268;SDS011;34088;52.232;5.196;2023-08-21T09:11:26;8.73;;;2.20;;
48268;SDS011;34088;52.232;5.196;2023-08-21T09:13:52;8.30;;;1.92;;
48268;SDS011;34088;52.232;5.196;2023-08-21T09:16:19;7.65;;;2.05;;
48268;SDS011;34088;52.232;5.196;2023-08-21T09:18:49;7.25;;;1.80;;
48268;SDS011;34088;52.232;5.196;2023-08-21T09:21:24;8.38;;;2.13;;
48268;SDS011;34088;52.232;5.196;2023-08-21T09:23:59;7.90;;;2.00;;
48268;SDS011;34088;52.232;5.196;2023-08-21T09:26:26;7.63;;;2.10;;
48268;SDS011;34088;52.232;5.196;2023-08-21T09:28:52;6.20;;;1.77;;
48268;SDS011;34088;52.232;5.196;2023-08-21T09:31:26;8.65;;;2.17;;
48268;SDS011;34088;52.232;5.196;2023-08-21T09:33:55;6.55;;;1.58;;
48268;SDS011;34088;52.232;5.196;2023-08-21T09:36:22;4.72;;;1.65;;
48268;SDS011;34088;52.232;5.196;2023-08-21T09:38:47;6.40;;;1.80;;
48268;SDS011;34088;52.232;5.196;2023-08-21T09:41:13;7.78;;;2.20;;
48268;SDS011;34088;52.232;5.196;2023-08-21T09:43:41;6.90;;;2.03;;
48268;SDS011;34088;52.232;5.196;2023-08-21T09:46:10;10.50;;;2.10;;
48268;SDS011;34088;52.232;5.196;2023-08-21T09:48:39;6.00;;;2.00;;
48268;SDS011;34088;52.232;5.196;2023-08-21T09:51:06;6.78;;;1.67;;
48268;SDS011;34088;52.232;5.196;2023-08-21T09:53:32;7.85;;;1.70;;
48268;SDS011;34088;52.232;5.196;2023-08-21T09:55:57;8.43;;;1.70;;
48268;SDS011;34088;52.232;5.196;2023-08-21T09:58:28;6.97;;;1.50;;
48268;SDS011;34088;52.232;5.196;2023-08-21T10:00:56;6.22;;;1.88;;
48268;SDS011;34088;52.232;5.196;2023-08-21T10:03:22;8.85;;;1.45;;
48268;SDS011;34088;52.232;5.196;2023-08-21T10:05:49;5.18;;;1.55;;
48268;SDS011;34088;52.232;5.196;2023-08-21T10:08:15;10.98;;;1.98;;
48268;SDS011;34088;52.232;5.196;2023-08-21T10:10:46;5.35;;;1.63;;
48268;SDS011;34088;52.232;5.196;2023-08-21T10:13:11;9.57;;;1.70;;
48268;SDS011;34088;52.232;5.196;2023-08-21T10:15:37;6.35;;;1.80;;
48268;SDS011;34088;52.232;5.196;2023-08-21T10:20:52;5.75;;;1.60;;
48268;SDS011;34088;52.232;5.196;2023-08-21T10:23:27;4.93;;;1.70;;
48268;SDS011;34088;52.232;5.196;2023-08-21T10:26:01;7.47;;;2.13;;
48268;SDS011;34088;52.232;5.196;2023-08-21T10:29:03;8.50;;;2.25;;
48268;SDS011;34088;52.232;5.196;2023-08-21T10:31:27;9.82;;;2.20;;
48268;SDS011;34088;52.232;5.196;2023-08-21T10:34:06;6.80;;;2.00;;
48268;SDS011;34088;52.232;5.196;2023-08-21T10:39:17;9.48;;;2.70;;
48268;SDS011;34088;52.232;5.196;2023-08-21T10:42:03;7.22;;;2.08;;
48268;SDS011;34088;52.232;5.196;2023-08-21T10:49:52;7.10;;;2.42;;
48268;SDS011;34088;52.232;5.196;2023-08-21T10:54:55;7.15;;;1.73;;
48268;SDS011;34088;52.232;5.196;2023-08-21T10:57:22;5.68;;;1.90;;
48268;SDS011;34088;52.232;5.196;2023-08-21T10:59:58;7.00;;;2.25;;
48268;SDS011;34088;52.232;5.196;2023-08-21T11:02:26;5.47;;;1.50;;
48268;SDS011;34088;52.232;5.196;2023-08-21T11:04:57;3.55;;;1.33;;
48268;SDS011;34088;52.232;5.196;2023-08-21T11:07:24;5.65;;;1.60;;
48268;SDS011;34088;52.232;5.196;2023-08-21T11:09:50;4.75;;;1.33;;
48268;SDS011;34088;52.232;5.196;2023-08-21T11:12:17;7.03;;;1.60;;
48268;SDS011;34088;52.232;5.196;2023-08-21T11:14:44;8.15;;;1.70;;
48268;SDS011;34088;52.232;5.196;2023-08-21T11:17:10;6.43;;;1.70;;
48268;SDS011;34088;52.232;5.196;2023-08-21T11:19:37;5.53;;;1.30;;
48268;SDS011;34088;52.232;5.196;2023-08-21T11:22:03;4.90;;;1.20;;
48268;SDS011;34088;52.232;5.196;2023-08-21T11:24:33;6.63;;;1.60;;
48268;SDS011;34088;52.232;5.196;2023-08-21T11:27:08;6.38;;;1.65;;
48268;SDS011;34088;52.232;5.196;2023-08-21T11:29:41;6.05;;;1.50;;
48268;SDS011;34088;52.232;5.196;2023-08-21T11:32:29;6.00;;;1.70;;
48268;SDS011;34088;52.232;5.196;2023-08-21T11:34:54;7.33;;;2.07;;
48268;SDS011;34088;52.232;5.196;2023-08-21T11:37:24;6.15;;;1.77;;
48268;SDS011;34088;52.232;5.196;2023-08-21T11:39:51;5.30;;;1.60;;
48268;SDS011;34088;52.232;5.196;2023-08-21T11:42:18;5.43;;;1.40;;
48268;SDS011;34088;52.232;5.196;2023-08-21T11:44:46;6.50;;;1.95;;
48268;SDS011;34088;52.232;5.196;2023-08-21T11:47:16;5.93;;;1.63;;
48268;SDS011;34088;52.232;5.196;2023-08-21T11:49:43;4.88;;;1.60;;
48268;SDS011;34088;52.232;5.196;2023-08-21T11:52:10;5.90;;;1.50;;
48268;SDS011;34088;52.232;5.196;2023-08-21T11:54:36;8.65;;;1.80;;
48268;SDS011;34088;52.232;5.196;2023-08-21T11:57:04;5.97;;;1.50;;
48268;SDS011;34088;52.232;5.196;2023-08-21T11:59:33;4.65;;;1.40;;
48268;SDS011;34088;52.232;5.196;2023-08-21T12:01:59;8.20;;;1.60;;
48268;SDS011;34088;52.232;5.196;2023-08-21T12:04:25;6.57;;;1.73;;
48268;SDS011;34088;52.232;5.196;2023-08-21T12:06:50;4.60;;;1.90;;
48268;SDS011;34088;52.232;5.196;2023-08-21T12:09:15;3.58;;;1.50;;
48268;SDS011;34088;52.232;5.196;2023-08-21T12:11:41;6.07;;;1.38;;
48268;SDS011;34088;52.232;5.196;2023-08-21T12:14:06;4.93;;;1.60;;
48268;SDS011;34088;52.232;5.196;2023-08-21T12:16:32;5.22;;;1.65;;
48268;SDS011;34088;52.232;5.196;2023-08-21T12:18:57;5.70;;;1.60;;
48268;SDS011;34088;52.232;5.196;2023-08-21T12:21:23;6.25;;;2.00;;
48268;SDS011;34088;52.232;5.196;2023-08-21T12:23:49;7.18;;;1.80;;
48268;SDS011;34088;52.232;5.196;2023-08-21T12:26:15;6.07;;;1.77;;
48268;SDS011;34088;52.232;5.196;2023-08-21T12:28:49;5.63;;;1.67;;
48268;SDS011;34088;52.232;5.196;2023-08-21T12:31:14;5.78;;;1.80;;
48268;SDS011;34088;52.232;5.196;2023-08-21T12:33:40;6.97;;;1.88;;
48268;SDS011;34088;52.232;5.196;2023-08-21T12:36:06;5.45;;;1.33;;
48268;SDS011;34088;52.232;5.196;2023-08-21T12:38:31;5.03;;;1.50;;
48268;SDS011;34088;52.232;5.196;2023-08-21T12:40:57;2.58;;;0.77;;
48268;SDS011;34088;52.232;5.196;2023-08-21T12:43:23;3.65;;;1.23;;
48268;SDS011;34088;52.232;5.196;2023-08-21T12:45:48;5.43;;;1.13;;
48268;SDS011;34088;52.232;5.196;2023-08-21T12:48:13;4.00;;;1.10;;
48268;SDS011;34088;52.232;5.196;2023-08-21T12:50:39;6.13;;;1.30;;
48268;SDS011;34088;52.232;5.196;2023-08-21T12:53:05;2.63;;;1.10;;
48268;SDS011;34088;52.232;5.196;2023-08-21T12:55:30;3.03;;;1.20;;
48268;SDS011;34088;52.232;5.196;2023-08-21T12:57:55;6.47;;;1.45;;
48268;SDS011;34088;52.232;5.196;2023-08-21T13:00:21;4.00;;;1.50;;
48268;SDS011;34088;52.232;5.196;2023-08-21T13:02:46;5.68;;;1.50;;
48268;SDS011;34088;52.232;5.196;2023-08-21T13:05:12;5.40;;;1.60;;
48268;SDS011;34088;52.232;5.196;2023-08-21T13:07:37;7.57;;;1.70;;
48268;SDS011;34088;52.232;5.196;2023-08-21T13:10:02;5.15;;;1.23;;
48268;SDS011;34088;52.232;5.196;2023-08-21T13:12:28;5.60;;;1.60;;
48268;SDS011;34088;52.232;5.196;2023-08-21T13:14:53;4.63;;;1.50;;
48268;SDS011;34088;52.232;5.196;2023-08-21T13:17:19;3.88;;;1.17;;
48268;SDS011;34088;52.232;5.196;2023-08-21T13:19:44;5.82;;;1.52;;
48268;SDS011;34088;52.232;5.196;2023-08-21T13:22:10;4.10;;;1.38;;
48268;SDS011;34088;52.232;5.196;2023-08-21T13:24:35;4.65;;;1.10;;
48268;SDS011;34088;52.232;5.196;2023-08-21T13:27:00;4.88;;;1.30;;
48268;SDS011;34088;52.232;5.196;2023-08-21T13:29:26;5.00;;;1.27;;
48268;SDS011;34088;52.232;5.196;2023-08-21T13:31:51;4.68;;;1.42;;
48268;SDS011;34088;52.232;5.196;2023-08-21T13:34:16;4.68;;;1.30;;
48268;SDS011;34088;52.232;5.196;2023-08-21T13:36:42;5.60;;;1.48;;
48268;SDS011;34088;52.232;5.196;2023-08-21T13:39:08;5.78;;;1.63;;
48268;SDS011;34088;52.232;5.196;2023-08-21T13:41:35;3.97;;;1.20;;
48268;SDS011;34088;52.232;5.196;2023-08-21T13:44:01;6.28;;;1.70;;
48268;SDS011;34088;52.232;5.196;2023-08-21T13:46:26;2.88;;;1.27;;
48268;SDS011;34088;52.232;5.196;2023-08-21T13:48:52;3.38;;;1.10;;
48268;SDS011;34088;52.232;5.196;2023-08-21T13:51:17;4.30;;;1.30;;
48268;SDS011;34088;52.232;5.196;2023-08-21T13:53:42;5.82;;;1.52;;
48268;SDS011;34088;52.232;5.196;2023-08-21T13:56:08;3.50;;;1.25;;
48268;SDS011;34088;52.232;5.196;2023-08-21T13:58:33;5.22;;;1.30;;
48268;SDS011;34088;52.232;5.196;2023-08-21T14:00:58;7.20;;;1.55;;
48268;SDS011;34088;52.232;5.196;2023-08-21T14:03:24;4.32;;;1.27;;
48268;SDS011;34088;52.232;5.196;2023-08-21T14:05:49;4.30;;;1.60;;
48268;SDS011;34088;52.232;5.196;2023-08-21T14:08:15;4.13;;;1.40;;
48268;SDS011;34088;52.232;5.196;2023-08-21T14:10:40;3.60;;;1.20;;
48268;SDS011;34088;52.232;5.196;2023-08-21T14:13:06;2.17;;;1.00;;
48268;SDS011;34088;52.232;5.196;2023-08-21T14:15:33;3.15;;;1.00;;
48268;SDS011;34088;52.232;5.196;2023-08-21T14:17:59;3.40;;;1.25;;
48268;SDS011;34088;52.232;5.196;2023-08-21T14:20:24;6.15;;;1.20;;
48268;SDS011;34088;52.232;5.196;2023-08-21T14:22:49;5.22;;;1.55;;
48268;SDS011;34088;52.232;5.196;2023-08-21T14:25:15;5.05;;;1.30;;
48268;SDS011;34088;52.232;5.196;2023-08-21T14:27:40;3.90;;;1.08;;
48268;SDS011;34088;52.232;5.196;2023-08-21T14:30:06;3.85;;;1.27;;
48268;SDS011;34088;52.232;5.196;2023-08-21T14:32:32;5.65;;;1.38;;
48268;SDS011;34088;52.232;5.196;2023-08-21T14:34:57;3.22;;;1.00;;
48268;SDS011;34088;52.232;5.196;2023-08-21T14:37:23;4.32;;;1.42;;
48268;SDS011;34088;52.232;5.196;2023-08-21T14:39:48;4.40;;;1.35;;
48268;SDS011;34088;52.232;5.196;2023-08-21T14:42:14;5.53;;;1.30;;
48268;SDS011;34088;52.232;5.196;2023-08-21T14:44:40;4.47;;;1.27;;
48268;SDS011;34088;52.232;5.196;2023-08-21T14:47:05;4.97;;;1.10;;
48268;SDS011;34088;52.232;5.196;2023-08-21T14:49:31;4.43;;;1.13;;
48268;SDS011;34088;52.232;5.196;2023-08-21T14:51:57;4.53;;;1.40;;
48268;SDS011;34088;52.232;5.196;2023-08-21T14:54:22;5.07;;;1.23;;
48268;SDS011;34088;52.232;5.196;2023-08-21T14:56:47;4.57;;;1.50;;
48268;SDS011;34088;52.232;5.196;2023-08-21T14:59:13;5.10;;;1.42;;
48268;SDS011;34088;52.232;5.196;2023-08-21T15:01:39;6.28;;;1.70;;
48268;SDS011;34088;52.232;5.196;2023-08-21T15:04:05;3.45;;;1.30;;
48268;SDS011;34088;52.232;5.196;2023-08-21T15:06:31;3.40;;;1.40;;
48268;SDS011;34088;52.232;5.196;2023-08-21T15:08:57;7.57;;;1.75;;
48268;SDS011;34088;52.232;5.196;2023-08-21T15:11:22;5.65;;;1.17;;
48268;SDS011;34088;52.232;5.196;2023-08-21T15:13:48;4.18;;;1.55;;
48268;SDS011;34088;52.232;5.196;2023-08-21T15:16:13;6.35;;;1.45;;
48268;SDS011;34088;52.232;5.196;2023-08-21T15:18:38;6.93;;;1.58;;
48268;SDS011;34088;52.232;5.196;2023-08-21T15:21:04;5.25;;;1.30;;
48268;SDS011;34088;52.232;5.196;2023-08-21T15:23:29;5.85;;;1.73;;
48268;SDS011;34088;52.232;5.196;2023-08-21T15:25:54;4.63;;;1.50;;
48268;SDS011;34088;52.232;5.196;2023-08-21T15:28:20;3.10;;;1.25;;
48268;SDS011;34088;52.232;5.196;2023-08-21T15:30:45;5.47;;;1.60;;